• Join FlightAware (Why Join?)
  • Login
  • US Flag 
05:20PM EDT


 

Airport Tracker/Info


-or-


 

Live Flight TrackerFlight Track Log ✈ TTE560 ✈ 22-Sep-2013 ✈ KCOE - KPIH

Flight Track Log - Related Links

Times and Time Zones

All times are in EDT time to prevent confusion due to time zone crossing. See the TTE560 flight status page for this flight to view local times or setup timezone preferences in your user account.

Time Position Orientation Groundspeed Altitude Reporting Facility
EDT Latitude Longitude Course Direction KTS MPH feet Rate Location/Type
01:46PM 47.6928 -116.8189 166° South 196 226 8,500  Level Seattle Center
01:47PM 47.6414 -116.7625 144° Southeast 230 265 10,600 1,980 Climbing Seattle Center
01:48PM 47.5772 -116.6933 144° Southeast 281 323 12,600 2,160 Climbing Seattle Center
01:49PM 47.5103 -116.6200 143° Southeast 296 341 15,000 1,620 Climbing Seattle Center
01:50PM 47.4392 -116.5447 144° Southeast 312 359 15,900 420 Climbing Seattle Center
01:51PM 47.3636 -116.4600 143° Southeast 337 388 15,900 240 Level Seattle Center
01:52PM 47.2869 -116.3828 146° Southeast 335 386 16,500 1,560 Climbing Seattle Center
01:53PM 47.2139 -116.3003 142° Southeast 331 381 19,100 2,400 Climbing Seattle Center
01:54PM 47.1381 -116.2231 145° Southeast 334 384 21,500 2,160 Climbing Seattle Center
01:55PM 47.0631 -116.1397 143° Southeast 337 388 23,600 1,980 Climbing Seattle Center
01:56PM 46.9842 -116.0586 145° Southeast 345 397 25,600 1,920 Climbing Seattle Center
01:57PM 46.9044 -115.9733 144° Southeast 356 410 27,600 1,920 Climbing Seattle Center
01:58PM 46.8231 -115.8900 145° Southeast 357 411 29,600 1,800 Climbing Seattle Center
01:59PM 46.7228 -115.7864 145° Southeast 370 426 31,400 1,500 Climbing Seattle Center
02:00PM 46.6375 -115.6961 144° Southeast 378 435 32,800 1,380 Climbing Seattle Center
02:01PM 46.5519 -115.6069 144° Southeast 380 437 34,300 1,080 Climbing Seattle Center
02:02PM 46.4656 -115.5161 144° Southeast 382 440 35,000 300 Climbing Seattle Center
02:03PM 46.3706 -115.4225 146° Southeast 405 466 35,000  Level Seattle Center
02:04PM 46.2728 -115.3211 144° Southeast 428 493 35,000  Level Seattle Center
02:05PM 46.1733 -115.2203 145° Southeast 435 501 35,000  Level Seattle Center
02:06PM 46.0722 -115.1175 145° Southeast 442 509 35,000  Level Seattle Center
02:07PM 45.9711 -115.0150 145° Southeast 445 512 35,000  Level Seattle Center
02:08PM 45.8603 -114.9083 146° Southeast 446 513 35,000  Level Seattle Center
02:09PM 45.7583 -114.8033 144° Southeast 449 517 35,000  Level Seattle Center
02:10PM 45.6442 -114.6911 145° Southeast 447 514 35,000  Level Seattle Center
02:11PM 45.5519 -114.6019 146° Southeast 452 520 35,000  Level Seattle Center
02:12PM 45.4483 -114.4986 145° Southeast 454 522 35,000  Level Seattle Center
02:13PM 45.3428 -114.3969 146° Southeast 457 526 35,000  Level Seattle Center
02:14PM 45.2819 -114.3364 145° Southeast 455 524 35,000  Level Salt Lake Center
02:15PM 45.1769 -114.2350 146° Southeast 455 524 35,000 -720 Level Salt Lake Center
02:16PM 45.0103 -114.0739 146° Southeast 451 519 33,200 -1,260 Descending Seattle Center
02:17PM 44.9664 -114.0372 149° Southeast 455 524 32,400 -1,440 Descending Salt Lake Center
02:18PM 44.8356 -113.9511 155° Southeast 448 516 31,000 -720 Descending Salt Lake Center
02:19PM 44.7331 -113.8722 151° Southeast 442 509 31,000  Level Salt Lake Center
02:20PM 44.6142 -113.7883 153° Southeast 434 499 31,000 -180 Level Salt Lake Center
02:22PM 44.3908 -113.6281 153° Southeast 434 499 30,500 -780 Descending Salt Lake Center
02:23PM 44.2914 -113.5544 152° Southeast 427 491 28,600 -1,980 Descending Salt Lake Center
02:24PM 44.1783 -113.4750 153° Southeast 415 478 26,500 -1,680 Descending Salt Lake Center
02:25PM 44.0900 -113.4136 153° Southeast 389 448 25,200 -1,380 Descending Salt Lake Center
02:26PM 44.0028 -113.3503 152° Southeast 338 389 23,700 -1,380 Descending Salt Lake Center
02:27PM 43.9267 -113.2967 153° Southeast 325 374 22,400 -1,440 Descending Salt Lake Center
02:28PM 43.8300 -113.2264 152° Southeast 339 390 20,800 -1,380 Descending Salt Lake Center
02:29PM 43.7353 -113.1639 155° Southeast 373 429 19,600 -900 Descending Salt Lake Center
02:30PM 43.6497 -113.1000 152° Southeast 371 427 19,000 -540 Descending Salt Lake Center
02:31PM 43.5531 -113.0358 154° Southeast 353 406 18,500 -1,200 Descending Salt Lake Center
02:32PM 43.4739 -112.9786 152° Southeast 341 392 16,600 -1,980 Descending Salt Lake Center
02:33PM 43.3806 -112.9169 154° Southeast 335 386 14,500 -1,920 Descending Salt Lake Center
02:34PM 43.3056 -112.8633 153° Southeast 328 377 12,700 -1,920 Descending Salt Lake Center
02:35PM 43.2197 -112.8067 154° Southeast 318 366 10,600 -1,320 Descending Salt Lake Center
02:36PM 43.1486 -112.7547 152° Southeast 311 358 10,000 -1,320 Descending Salt Lake Center
02:37PM 43.0844 -112.6936 145° Southeast 290 334 7,900 -1,260 Descending Salt Lake Center
02:38PM 43.0353 -112.6417 142° Southeast 256 295 7,400 -780 Descending Salt Lake Center
02:40PM 42.9906 -112.5875 138° Southeast 217 250 6,300 -900 Descending Salt Lake Center
02:41PM 42.9536 -112.5425 138° Southeast 202 232 5,600 -540 Descending Salt Lake Center
02:42PM 42.9047 -112.5456 183° South 193 222 5,200 -420 Descending Salt Lake Center